sensor_id;sensor_type;location;lat;lon;timestamp;pressure;altitude;pressure_sealevel;temperature;humidity
71996;BME280;59862;47.732;7.346;2023-05-25T00:01:02;98283.09;;;11.42;57.15
71996;BME280;59862;47.732;7.346;2023-05-25T00:03:31;98277.15;;;11.32;57.17
71996;BME280;59862;47.732;7.346;2023-05-25T00:05:59;98276.16;;;11.29;57.27
71996;BME280;59862;47.732;7.346;2023-05-25T00:08:27;98288.24;;;11.29;57.46
71996;BME280;59862;47.732;7.346;2023-05-25T00:10:55;98282.48;;;11.36;57.69
71996;BME280;59862;47.732;7.346;2023-05-25T00:13:22;98287.51;;;11.35;57.20
71996;BME280;59862;47.732;7.346;2023-05-25T00:15:50;98289.23;;;11.32;57.23
71996;BME280;59862;47.732;7.346;2023-05-25T00:18:17;98290.23;;;11.31;57.45
71996;BME280;59862;47.732;7.346;2023-05-25T00:20:45;98285.59;;;11.25;57.35
71996;BME280;59862;47.732;7.346;2023-05-25T00:23:12;98282.10;;;11.20;57.61
71996;BME280;59862;47.732;7.346;2023-05-25T00:25:40;98274.55;;;11.20;57.50
71996;BME280;59862;47.732;7.346;2023-05-25T00:28:07;98271.17;;;11.22;57.40
71996;BME280;59862;47.732;7.346;2023-05-25T00:30:35;98259.72;;;11.28;57.68
71996;BME280;59862;47.732;7.346;2023-05-25T00:33:02;98267.13;;;11.26;57.58
71996;BME280;59862;47.732;7.346;2023-05-25T00:35:30;98261.76;;;11.26;57.34
71996;BME280;59862;47.732;7.346;2023-05-25T00:37:57;98274.08;;;11.16;57.79
71996;BME280;59862;47.732;7.346;2023-05-25T00:40:25;98276.31;;;11.09;57.98
71996;BME280;59862;47.732;7.346;2023-05-25T00:42:52;98266.60;;;11.08;57.85
71996;BME280;59862;47.732;7.346;2023-05-25T00:45:20;98268.59;;;11.10;57.98
71996;BME280;59862;47.732;7.346;2023-05-25T00:47:51;98269.09;;;11.09;58.47
71996;BME280;59862;47.732;7.346;2023-05-25T00:50:22;98272.28;;;11.13;58.39
71996;BME280;59862;47.732;7.346;2023-05-25T00:52:49;98267.25;;;11.10;57.68
71996;BME280;59862;47.732;7.346;2023-05-25T00:55:18;98261.88;;;11.10;58.05
71996;BME280;59862;47.732;7.346;2023-05-25T00:57:47;98257.70;;;11.07;58.34
71996;BME280;59862;47.732;7.346;2023-05-25T01:00:16;98260.34;;;11.11;58.32
71996;BME280;59862;47.732;7.346;2023-05-25T01:02:47;98258.35;;;11.09;58.08
71996;BME280;59862;47.732;7.346;2023-05-25T01:05:18;98259.54;;;11.11;57.81
71996;BME280;59862;47.732;7.346;2023-05-25T01:07:47;98245.38;;;11.17;58.00
71996;BME280;59862;47.732;7.346;2023-05-25T01:10:16;98243.70;;;11.16;58.03
71996;BME280;59862;47.732;7.346;2023-05-25T01:12:45;98237.17;;;11.14;58.12
71996;BME280;59862;47.732;7.346;2023-05-25T01:15:14;98240.05;;;11.13;58.17
71996;BME280;59862;47.732;7.346;2023-05-25T01:17:42;98240.06;;;11.09;57.96
71996;BME280;59862;47.732;7.346;2023-05-25T01:20:11;98244.77;;;11.07;58.09
71996;BME280;59862;47.732;7.346;2023-05-25T01:22:50;98232.73;;;11.03;58.21
71996;BME280;59862;47.732;7.346;2023-05-25T01:25:26;98240.13;;;11.01;58.16
71996;BME280;59862;47.732;7.346;2023-05-25T01:28:00;98244.81;;;11.03;58.30
71996;BME280;59862;47.732;7.346;2023-05-25T01:30:25;98246.19;;;10.99;58.14
71996;BME280;59862;47.732;7.346;2023-05-25T01:32:53;98250.33;;;10.87;58.52
71996;BME280;59862;47.732;7.346;2023-05-25T01:35:21;98244.30;;;10.81;58.63
71996;BME280;59862;47.732;7.346;2023-05-25T01:37:51;98240.03;;;10.72;58.92
71996;BME280;59862;47.732;7.346;2023-05-25T01:40:19;98242.06;;;10.65;59.01
71996;BME280;59862;47.732;7.346;2023-05-25T01:42:46;98235.20;;;10.67;59.13
71996;BME280;59862;47.732;7.346;2023-05-25T01:45:14;98240.22;;;10.66;59.48
71996;BME280;59862;47.732;7.346;2023-05-25T01:48:05;98241.13;;;10.58;59.46
71996;BME280;59862;47.732;7.346;2023-05-25T01:53:15;98250.57;;;10.46;59.53
71996;BME280;59862;47.732;7.346;2023-05-25T01:55:57;98245.73;;;10.46;60.00
71996;BME280;59862;47.732;7.346;2023-05-25T01:58:22;98247.08;;;10.46;59.93
71996;BME280;59862;47.732;7.346;2023-05-25T02:00:51;98237.69;;;10.42;60.11
71996;BME280;59862;47.732;7.346;2023-05-25T02:03:19;98231.48;;;10.45;60.15
71996;BME280;59862;47.732;7.346;2023-05-25T02:05:46;98229.80;;;10.44;60.27
71996;BME280;59862;47.732;7.346;2023-05-25T02:08:14;98229.80;;;10.44;60.27
71996;BME280;59862;47.732;7.346;2023-05-25T02:10:41;98230.64;;;10.45;59.98
71996;BME280;59862;47.732;7.346;2023-05-25T02:13:09;98230.80;;;10.47;60.38
71996;BME280;59862;47.732;7.346;2023-05-25T02:15:36;98232.97;;;10.44;59.85
71996;BME280;59862;47.732;7.346;2023-05-25T02:18:04;98232.30;;;10.50;60.11
71996;BME280;59862;47.732;7.346;2023-05-25T02:20:31;98236.19;;;10.43;59.95
71996;BME280;59862;47.732;7.346;2023-05-25T02:22:59;98231.32;;;10.43;60.06
71996;BME280;59862;47.732;7.346;2023-05-25T02:25:26;98231.32;;;10.43;60.06
71996;BME280;59862;47.732;7.346;2023-05-25T02:27:54;98224.77;;;10.45;60.37
71996;BME280;59862;47.732;7.346;2023-05-25T02:30:21;98230.66;;;10.41;60.71
71996;BME280;59862;47.732;7.346;2023-05-25T02:32:49;98228.30;;;10.46;60.22
71996;BME280;59862;47.732;7.346;2023-05-25T02:35:16;98230.08;;;10.53;60.12
71996;BME280;59862;47.732;7.346;2023-05-25T02:37:44;98222.50;;;10.61;60.23
71996;BME280;59862;47.732;7.346;2023-05-25T02:40:12;98232.11;;;10.51;60.05
71996;BME280;59862;47.732;7.346;2023-05-25T02:42:40;98226.40;;;10.50;60.40
71996;BME280;59862;47.732;7.346;2023-05-25T02:45:09;98224.41;;;10.52;60.18
71996;BME280;59862;47.732;7.346;2023-05-25T02:47:37;98219.69;;;10.54;60.13
71996;BME280;59862;47.732;7.346;2023-05-25T02:50:05;98224.55;;;10.51;60.06
71996;BME280;59862;47.732;7.346;2023-05-25T02:52:33;98217.75;;;10.40;60.45
71996;BME280;59862;47.732;7.346;2023-05-25T02:55:00;98224.27;;;10.46;60.53
71996;BME280;59862;47.732;7.346;2023-05-25T02:57:29;98232.77;;;10.53;60.54
71996;BME280;59862;47.732;7.346;2023-05-25T02:59:56;98172.48;;;10.15;60.47
71996;BME280;59862;47.732;7.346;2023-05-25T03:02:24;98230.48;;;10.42;60.98
71996;BME280;59862;47.732;7.346;2023-05-25T03:04:52;98225.67;;;10.34;60.78
71996;BME280;59862;47.732;7.346;2023-05-25T03:07:19;98232.03;;;10.37;61.00
71996;BME280;59862;47.732;7.346;2023-05-25T03:09:47;98231.56;;;10.29;60.92
71996;BME280;59862;47.732;7.346;2023-05-25T03:12:14;98235.43;;;10.31;61.16
71996;BME280;59862;47.732;7.346;2023-05-25T03:14:42;98234.74;;;10.33;61.02
71996;BME280;59862;47.732;7.346;2023-05-25T03:17:09;98236.23;;;10.31;60.98
71996;BME280;59862;47.732;7.346;2023-05-25T03:19:37;98225.22;;;10.26;61.52
71996;BME280;59862;47.732;7.346;2023-05-25T03:22:04;98234.08;;;10.27;61.42
71996;BME280;59862;47.732;7.346;2023-05-25T03:24:32;98235.55;;;10.33;61.59
71996;BME280;59862;47.732;7.346;2023-05-25T03:26:59;98232.56;;;10.32;61.17
71996;BME280;59862;47.732;7.346;2023-05-25T03:29:27;98229.53;;;10.31;61.40
71996;BME280;59862;47.732;7.346;2023-05-25T03:31:54;98237.03;;;10.40;61.45
71996;BME280;59862;47.732;7.346;2023-05-25T03:34:22;98233.41;;;10.33;61.39
71996;BME280;59862;47.732;7.346;2023-05-25T03:36:50;98237.00;;;10.17;61.44
71996;BME280;59862;47.732;7.346;2023-05-25T03:39:19;98246.38;;;10.17;61.83
71996;BME280;59862;47.732;7.346;2023-05-25T03:41:47;98235.34;;;10.12;62.00
71996;BME280;59862;47.732;7.346;2023-05-25T03:44:16;98245.88;;;10.14;61.77
71996;BME280;59862;47.732;7.346;2023-05-25T03:46:43;98246.41;;;10.13;62.36
71996;BME280;59862;47.732;7.346;2023-05-25T03:49:11;98255.40;;;10.20;62.33
71996;BME280;59862;47.732;7.346;2023-05-25T03:51:40;98256.75;;;10.24;61.78
71996;BME280;59862;47.732;7.346;2023-05-25T03:54:08;98250.03;;;10.20;61.59
71996;BME280;59862;47.732;7.346;2023-05-25T03:56:35;98253.91;;;10.22;62.53
71996;BME280;59862;47.732;7.346;2023-05-25T03:59:03;98259.09;;;10.23;62.03
71996;BME280;59862;47.732;7.346;2023-05-25T04:01:30;98254.59;;;10.08;62.29
71996;BME280;59862;47.732;7.346;2023-05-25T04:03:58;98258.30;;;10.07;62.90
71996;BME280;59862;47.732;7.346;2023-05-25T04:06:25;98258.78;;;10.14;63.47
71996;BME280;59862;47.732;7.346;2023-05-25T04:08:54;98262.81;;;10.14;62.71
71996;BME280;59862;47.732;7.346;2023-05-25T04:11:23;98266.64;;;10.16;62.55
71996;BME280;59862;47.732;7.346;2023-05-25T04:13:51;98268.17;;;10.14;63.16
71996;BME280;59862;47.732;7.346;2023-05-25T04:16:18;98266.84;;;10.06;62.74
71996;BME280;59862;47.732;7.346;2023-05-25T04:18:47;98265.52;;;10.02;63.60
71996;BME280;59862;47.732;7.346;2023-05-25T04:21:14;98273.25;;;9.93;63.92
71996;BME280;59862;47.732;7.346;2023-05-25T04:23:41;98273.60;;;9.86;63.90
71996;BME280;59862;47.732;7.346;2023-05-25T04:26:09;98279.62;;;9.96;64.04
71996;BME280;59862;47.732;7.346;2023-05-25T04:28:37;98272.75;;;9.93;64.33
71996;BME280;59862;47.732;7.346;2023-05-25T04:31:07;98273.91;;;9.95;64.50
71996;BME280;59862;47.732;7.346;2023-05-25T04:33:35;98273.91;;;9.95;64.50
71996;BME280;59862;47.732;7.346;2023-05-25T04:36:06;98272.09;;;9.91;63.91
71996;BME280;59862;47.732;7.346;2023-05-25T04:38:35;98271.54;;;10.04;63.80
71996;BME280;59862;47.732;7.346;2023-05-25T04:41:03;98271.54;;;10.04;63.80
71996;BME280;59862;47.732;7.346;2023-05-25T04:43:31;98272.90;;;10.00;63.59
71996;BME280;59862;47.732;7.346;2023-05-25T04:45:59;98279.27;;;10.11;63.26
71996;BME280;59862;47.732;7.346;2023-05-25T04:48:27;98286.58;;;10.09;63.19
71996;BME280;59862;47.732;7.346;2023-05-25T04:50:56;98284.09;;;10.20;63.45
71996;BME280;59862;47.732;7.346;2023-05-25T04:53:25;98284.09;;;10.20;63.45
71996;BME280;59862;47.732;7.346;2023-05-25T04:55:53;98286.75;;;10.24;63.21
71996;BME280;59862;47.732;7.346;2023-05-25T04:58:21;98283.41;;;10.22;63.24
71996;BME280;59862;47.732;7.346;2023-05-25T05:00:49;98279.81;;;10.33;62.82
71996;BME280;59862;47.732;7.346;2023-05-25T05:03:16;98279.81;;;10.33;62.82
71996;BME280;59862;47.732;7.346;2023-05-25T05:05:44;98290.88;;;10.34;63.18
71996;BME280;59862;47.732;7.346;2023-05-25T05:08:12;98290.13;;;10.52;63.05
71996;BME280;59862;47.732;7.346;2023-05-25T05:10:39;98297.58;;;10.69;62.70
71996;BME280;59862;47.732;7.346;2023-05-25T05:13:07;98304.81;;;10.64;62.06
71996;BME280;59862;47.732;7.346;2023-05-25T05:15:36;98300.58;;;10.74;61.95
71996;BME280;59862;47.732;7.346;2023-05-25T05:18:03;98299.77;;;10.70;62.15
71996;BME280;59862;47.732;7.346;2023-05-25T05:20:31;98300.70;;;10.77;62.02
71996;BME280;59862;47.732;7.346;2023-05-25T05:22:59;98297.84;;;10.51;62.29
71996;BME280;59862;47.732;7.346;2023-05-25T05:25:26;98292.81;;;10.48;62.44
71996;BME280;59862;47.732;7.346;2023-05-25T05:27:54;98296.44;;;10.59;62.50
71996;BME280;59862;47.732;7.346;2023-05-25T05:30:21;98303.81;;;10.61;62.82
71996;BME280;59862;47.732;7.346;2023-05-25T05:32:48;98305.12;;;10.65;62.86
71996;BME280;59862;47.732;7.346;2023-05-25T05:35:16;98309.13;;;10.74;62.59
71996;BME280;59862;47.732;7.346;2023-05-25T05:37:43;98309.07;;;10.82;62.41
71996;BME280;59862;47.732;7.346;2023-05-25T05:40:12;98313.47;;;10.75;61.86
71996;BME280;59862;47.732;7.346;2023-05-25T05:42:40;98313.47;;;10.75;62.21
71996;BME280;59862;47.732;7.346;2023-05-25T05:45:08;98312.50;;;10.72;61.85
71996;BME280;59862;47.732;7.346;2023-05-25T05:47:36;98316.41;;;10.57;62.12
71996;BME280;59862;47.732;7.346;2023-05-25T05:50:04;98313.28;;;10.49;62.30
71996;BME280;59862;47.732;7.346;2023-05-25T05:52:32;98319.96;;;10.53;62.19
71996;BME280;59862;47.732;7.346;2023-05-25T05:54:59;98312.91;;;10.56;62.00
71996;BME280;59862;47.732;7.346;2023-05-25T05:57:27;98300.44;;;10.63;61.75
71996;BME280;59862;47.732;7.346;2023-05-25T05:59:55;98300.44;;;10.63;61.75
71996;BME280;59862;47.732;7.346;2023-05-25T06:02:22;98304.30;;;10.92;61.60
71996;BME280;59862;47.732;7.346;2023-05-25T06:04:49;98304.30;;;10.92;61.60
71996;BME280;59862;47.732;7.346;2023-05-25T06:07:17;98305.84;;;11.13;61.78
71996;BME280;59862;47.732;7.346;2023-05-25T06:09:44;98311.08;;;11.29;61.08
71996;BME280;59862;47.732;7.346;2023-05-25T06:12:12;98317.60;;;11.30;60.51
71996;BME280;59862;47.732;7.346;2023-05-25T06:14:39;98308.73;;;11.30;59.81
71996;BME280;59862;47.732;7.346;2023-05-25T06:17:06;98307.31;;;11.38;59.90
71996;BME280;59862;47.732;7.346;2023-05-25T06:19:34;98314.76;;;11.32;60.05
71996;BME280;59862;47.732;7.346;2023-05-25T06:22:01;98318.09;;;11.34;59.96
71996;BME280;59862;47.732;7.346;2023-05-25T06:24:29;98321.36;;;11.44;60.28
71996;BME280;59862;47.732;7.346;2023-05-25T06:26:56;98315.55;;;11.55;60.07
71996;BME280;59862;47.732;7.346;2023-05-25T06:29:24;98321.97;;;11.54;59.70
71996;BME280;59862;47.732;7.346;2023-05-25T06:31:51;98316.31;;;11.64;59.97
71996;BME280;59862;47.732;7.346;2023-05-25T06:34:18;98316.45;;;11.70;59.62
71996;BME280;59862;47.732;7.346;2023-05-25T06:36:46;98318.61;;;11.89;59.89
71996;BME280;59862;47.732;7.346;2023-05-25T06:39:13;98323.69;;;12.03;58.72
71996;BME280;59862;47.732;7.346;2023-05-25T06:41:41;98318.16;;;12.00;58.82
71996;BME280;59862;47.732;7.346;2023-05-25T06:44:09;98319.45;;;12.04;58.83
71996;BME280;59862;47.732;7.346;2023-05-25T06:46:36;98312.27;;;12.15;59.07
71996;BME280;59862;47.732;7.346;2023-05-25T06:49:04;98320.67;;;12.31;59.72
71996;BME280;59862;47.732;7.346;2023-05-25T06:51:32;98319.41;;;12.38;58.02
71996;BME280;59862;47.732;7.346;2023-05-25T06:53:59;98335.61;;;12.34;57.88
71996;BME280;59862;47.732;7.346;2023-05-25T06:56:27;98331.34;;;12.25;57.96
71996;BME280;59862;47.732;7.346;2023-05-25T06:58:54;98332.79;;;12.16;58.12
71996;BME280;59862;47.732;7.346;2023-05-25T07:01:21;98339.83;;;12.17;58.18
71996;BME280;59862;47.732;7.346;2023-05-25T07:03:49;98335.47;;;12.31;58.96
71996;BME280;59862;47.732;7.346;2023-05-25T07:06:16;98339.59;;;12.38;58.08
71996;BME280;59862;47.732;7.346;2023-05-25T07:08:44;98336.16;;;12.44;58.36
71996;BME280;59862;47.732;7.346;2023-05-25T07:11:11;98334.17;;;12.67;58.57
71996;BME280;59862;47.732;7.346;2023-05-25T07:13:39;98337.42;;;12.77;57.25
71996;BME280;59862;47.732;7.346;2023-05-25T07:16:07;98333.03;;;12.90;57.56
71996;BME280;59862;47.732;7.346;2023-05-25T07:18:39;98338.52;;;12.93;57.57
71996;BME280;59862;47.732;7.346;2023-05-25T07:21:08;98348.59;;;12.95;56.33
71996;BME280;59862;47.732;7.346;2023-05-25T07:23:36;98346.63;;;13.08;56.68
71996;BME280;59862;47.732;7.346;2023-05-25T07:26:05;98347.22;;;12.99;56.30
71996;BME280;59862;47.732;7.346;2023-05-25T07:28:33;98351.04;;;13.15;56.78
71996;BME280;59862;47.732;7.346;2023-05-25T07:31:01;98351.69;;;13.38;56.41
71996;BME280;59862;47.732;7.346;2023-05-25T07:33:28;98354.13;;;13.54;55.61
71996;BME280;59862;47.732;7.346;2023-05-25T07:35:56;98355.11;;;13.57;55.20
71996;BME280;59862;47.732;7.346;2023-05-25T07:38:23;98354.33;;;13.63;55.80
71996;BME280;59862;47.732;7.346;2023-05-25T07:40:51;98358.99;;;13.76;55.18
71996;BME280;59862;47.732;7.346;2023-05-25T07:43:18;98354.14;;;13.93;55.42
71996;BME280;59862;47.732;7.346;2023-05-25T07:45:46;98354.36;;;14.08;54.94
71996;BME280;59862;47.732;7.346;2023-05-25T07:48:13;98362.43;;;14.19;55.38
71996;BME280;59862;47.732;7.346;2023-05-25T07:50:40;98362.43;;;14.19;54.06
71996;BME280;59862;47.732;7.346;2023-05-25T07:53:08;98368.78;;;14.05;54.62
71996;BME280;59862;47.732;7.346;2023-05-25T07:55:35;98362.25;;;14.20;54.30
71996;BME280;59862;47.732;7.346;2023-05-25T07:58:03;98372.03;;;14.11;54.07
71996;BME280;59862;47.732;7.346;2023-05-25T08:00:32;98367.81;;;14.40;53.66
71996;BME280;59862;47.732;7.346;2023-05-25T08:02:59;98367.34;;;14.71;53.80
71996;BME280;59862;47.732;7.346;2023-05-25T08:05:28;98365.41;;;14.82;53.01
71996;BME280;59862;47.732;7.346;2023-05-25T08:07:55;98369.91;;;15.09;53.67
71996;BME280;59862;47.732;7.346;2023-05-25T08:10:23;98366.52;;;15.24;52.33
71996;BME280;59862;47.732;7.346;2023-05-25T08:12:52;98373.83;;;15.37;51.94
71996;BME280;59862;47.732;7.346;2023-05-25T08:15:20;98375.46;;;15.31;51.80
71996;BME280;59862;47.732;7.346;2023-05-25T08:17:47;98380.78;;;15.59;52.03
71996;BME280;59862;47.732;7.346;2023-05-25T08:20:17;98380.69;;;15.76;51.42
71996;BME280;59862;47.732;7.346;2023-05-25T08:22:44;98384.23;;;15.70;50.80
71996;BME280;59862;47.732;7.346;2023-05-25T08:25:12;98389.41;;;15.65;51.27
71996;BME280;59862;47.732;7.346;2023-05-25T08:27:39;98389.00;;;15.81;51.07
71996;BME280;59862;47.732;7.346;2023-05-25T08:30:07;98383.70;;;15.90;50.40
71996;BME280;59862;47.732;7.346;2023-05-25T08:32:35;98369.32;;;16.22;51.12
71996;BME280;59862;47.732;7.346;2023-05-25T08:35:02;98379.31;;;16.48;50.38
71996;BME280;59862;47.732;7.346;2023-05-25T08:37:31;98388.59;;;16.56;49.67
71996;BME280;59862;47.732;7.346;2023-05-25T08:39:59;98383.04;;;16.66;50.35
71996;BME280;59862;47.732;7.346;2023-05-25T08:42:28;98387.33;;;16.45;49.35
71996;BME280;59862;47.732;7.346;2023-05-25T08:44:56;98394.13;;;16.32;49.72
71996;BME280;59862;47.732;7.346;2023-05-25T08:47:24;98389.72;;;16.44;50.60
71996;BME280;59862;47.732;7.346;2023-05-25T08:49:54;98391.88;;;16.78;49.67
71996;BME280;59862;47.732;7.346;2023-05-25T08:52:22;98393.50;;;16.85;49.69
71996;BME280;59862;47.732;7.346;2023-05-25T08:54:54;98399.73;;;17.21;49.41
71996;BME280;59862;47.732;7.346;2023-05-25T08:57:28;98396.30;;;17.61;49.25
71996;BME280;59862;47.732;7.346;2023-05-25T09:07:54;98379.59;;;17.79;46.62
71996;BME280;59862;47.732;7.346;2023-05-25T09:10:24;98389.64;;;18.03;47.91
71996;BME280;59862;47.732;7.346;2023-05-25T09:12:53;98397.95;;;18.49;47.61
71996;BME280;59862;47.732;7.346;2023-05-25T09:15:21;98396.97;;;18.28;46.42
71996;BME280;59862;47.732;7.346;2023-05-25T09:17:49;98401.45;;;18.40;46.44
71996;BME280;59862;47.732;7.346;2023-05-25T09:20:17;98403.30;;;18.31;46.15
71996;BME280;59862;47.732;7.346;2023-05-25T09:22:47;98400.15;;;18.34;46.40
71996;BME280;59862;47.732;7.346;2023-05-25T09:25:18;98394.70;;;18.49;46.27
71996;BME280;59862;47.732;7.346;2023-05-25T09:27:46;98403.08;;;18.57;46.25
71996;BME280;59862;47.732;7.346;2023-05-25T09:30:13;98403.44;;;18.27;46.78
71996;BME280;59862;47.732;7.346;2023-05-25T09:32:41;98406.94;;;18.34;46.93
71996;BME280;59862;47.732;7.346;2023-05-25T09:35:13;98405.97;;;18.62;47.21
71996;BME280;59862;47.732;7.346;2023-05-25T09:37:42;98401.16;;;18.73;46.07
71996;BME280;59862;47.732;7.346;2023-05-25T09:40:10;98406.28;;;18.81;46.12
71996;BME280;59862;47.732;7.346;2023-05-25T09:42:38;98407.80;;;18.77;46.43
71996;BME280;59862;47.732;7.346;2023-05-25T09:45:06;98414.08;;;18.77;46.56
71996;BME280;59862;47.732;7.346;2023-05-25T09:47:35;98412.25;;;18.89;46.49
71996;BME280;59862;47.732;7.346;2023-05-25T09:50:04;98416.55;;;19.24;45.80
71996;BME280;59862;47.732;7.346;2023-05-25T09:52:32;98408.73;;;19.85;45.80
71996;BME280;59862;47.732;7.346;2023-05-25T09:55:01;98412.58;;;19.65;45.38
71996;BME280;59862;47.732;7.346;2023-05-25T09:57:29;98417.84;;;19.79;45.20
71996;BME280;59862;47.732;7.346;2023-05-25T09:59:56;98418.41;;;19.90;44.88
71996;BME280;59862;47.732;7.346;2023-05-25T10:02:24;98414.82;;;20.74;44.23
71996;BME280;59862;47.732;7.346;2023-05-25T10:04:51;98425.66;;;21.72;41.07
71996;BME280;59862;47.732;7.346;2023-05-25T10:07:18;98428.75;;;23.44;39.03
71996;BME280;59862;47.732;7.346;2023-05-25T10:09:47;98427.42;;;24.51;35.87
71996;BME280;59862;47.732;7.346;2023-05-25T10:12:18;98431.31;;;24.57;36.43
71996;BME280;59862;47.732;7.346;2023-05-25T10:14:48;98431.84;;;23.98;36.74
71996;BME280;59862;47.732;7.346;2023-05-25T10:17:20;98444.23;;;23.55;38.16
71996;BME280;59862;47.732;7.346;2023-05-25T10:22:24;98428.11;;;22.80;39.47
71996;BME280;59862;47.732;7.346;2023-05-25T10:27:33;98436.57;;;24.30;36.66
71996;BME280;59862;47.732;7.346;2023-05-25T10:29:55;98428.85;;;24.27;36.70
71996;BME280;59862;47.732;7.346;2023-05-25T10:32:23;98424.52;;;23.82;38.01
71996;BME280;59862;47.732;7.346;2023-05-25T10:34:52;98437.42;;;23.36;37.71
71996;BME280;59862;47.732;7.346;2023-05-25T10:37:24;98432.25;;;22.66;39.51
71996;BME280;59862;47.732;7.346;2023-05-25T10:39:54;98421.64;;;22.05;41.10
71996;BME280;59862;47.732;7.346;2023-05-25T10:42:22;98438.61;;;22.54;40.29
71996;BME280;59862;47.732;7.346;2023-05-25T10:44:53;98430.90;;;22.18;40.63
71996;BME280;59862;47.732;7.346;2023-05-25T10:47:22;98435.55;;;22.51;40.89
71996;BME280;59862;47.732;7.346;2023-05-25T10:49:57;98433.97;;;22.69;40.75
71996;BME280;59862;47.732;7.346;2023-05-25T10:52:31;98444.07;;;23.64;39.22
71996;BME280;59862;47.732;7.346;2023-05-25T10:55:00;98444.94;;;24.45;37.58
71996;BME280;59862;47.732;7.346;2023-05-25T10:57:29;98448.39;;;23.82;38.23
71996;BME280;59862;47.732;7.346;2023-05-25T11:00:03;98446.98;;;24.03;37.98
71996;BME280;59862;47.732;7.346;2023-05-25T11:02:50;98450.14;;;24.15;38.17
71996;BME280;59862;47.732;7.346;2023-05-25T11:08:00;98447.00;;;23.17;39.47
71996;BME280;59862;47.732;7.346;2023-05-25T11:16:17;98449.93;;;21.82;42.95
71996;BME280;59862;47.732;7.346;2023-05-25T11:18:51;98446.81;;;21.65;43.64
71996;BME280;59862;47.732;7.346;2023-05-25T11:24:02;98460.11;;;22.79;42.17
71996;BME280;59862;47.732;7.346;2023-05-25T11:26:33;98454.66;;;23.34;40.23
71996;BME280;59862;47.732;7.346;2023-05-25T11:29:12;98446.90;;;23.31;40.06
71996;BME280;59862;47.732;7.346;2023-05-25T11:31:39;98444.09;;;23.07;40.37
71996;BME280;59862;47.732;7.346;2023-05-25T11:34:08;98439.77;;;23.11;41.34
71996;BME280;59862;47.732;7.346;2023-05-25T11:36:37;98441.30;;;23.02;41.65
71996;BME280;59862;47.732;7.346;2023-05-25T11:39:05;98442.34;;;22.48;42.28
71996;BME280;59862;47.732;7.346;2023-05-25T11:41:32;98445.18;;;22.37;43.17
71996;BME280;59862;47.732;7.346;2023-05-25T11:44:05;98452.22;;;22.83;42.69
71996;BME280;59862;47.732;7.346;2023-05-25T11:46:33;98452.66;;;22.91;41.79
71996;BME280;59862;47.732;7.346;2023-05-25T11:49:00;98447.19;;;22.27;43.21
71996;BME280;59862;47.732;7.346;2023-05-25T11:51:29;98443.44;;;22.00;43.17
71996;BME280;59862;47.732;7.346;2023-05-25T11:53:57;98446.22;;;21.77;44.67
71996;BME280;59862;47.732;7.346;2023-05-25T11:56:24;98440.19;;;21.61;44.20
71996;BME280;59862;47.732;7.346;2023-05-25T11:58:52;98441.61;;;21.63;44.39
71996;BME280;59862;47.732;7.346;2023-05-25T12:01:21;98437.03;;;21.95;44.74
71996;BME280;59862;47.732;7.346;2023-05-25T12:03:51;98440.34;;;22.75;42.63
71996;BME280;59862;47.732;7.346;2023-05-25T12:06:30;98446.75;;;24.66;40.02
71996;BME280;59862;47.732;7.346;2023-05-25T12:09:00;98450.19;;;25.77;37.40
71996;BME280;59862;47.732;7.346;2023-05-25T12:11:34;98461.77;;;25.29;37.08
71996;BME280;59862;47.732;7.346;2023-05-25T12:14:05;98464.73;;;24.52;39.11
71996;BME280;59862;47.732;7.346;2023-05-25T12:16:34;98458.39;;;24.78;38.75
71996;BME280;59862;47.732;7.346;2023-05-25T12:19:05;98451.89;;;25.38;37.07
71996;BME280;59862;47.732;7.346;2023-05-25T12:21:33;98453.28;;;26.08;36.52
71996;BME280;59862;47.732;7.346;2023-05-25T12:24:01;98453.51;;;25.89;35.85
71996;BME280;59862;47.732;7.346;2023-05-25T12:26:31;98454.00;;;25.21;36.70
71996;BME280;59862;47.732;7.346;2023-05-25T12:29:07;98455.72;;;24.25;38.83
71996;BME280;59862;47.732;7.346;2023-05-25T12:31:36;98452.92;;;24.80;38.39
71996;BME280;59862;47.732;7.346;2023-05-25T12:34:15;98451.23;;;25.14;37.72
71996;BME280;59862;47.732;7.346;2023-05-25T12:36:48;98450.55;;;24.62;37.99
71996;BME280;59862;47.732;7.346;2023-05-25T12:39:33;98461.16;;;24.49;39.38
71996;BME280;59862;47.732;7.346;2023-05-25T12:42:03;98463.41;;;24.25;39.28
71996;BME280;59862;47.732;7.346;2023-05-25T12:44:34;98470.69;;;23.90;40.01
71996;BME280;59862;47.732;7.346;2023-05-25T12:47:13;98456.80;;;23.13;40.70
71996;BME280;59862;47.732;7.346;2023-05-25T12:49:43;98461.92;;;23.69;40.50
71996;BME280;59862;47.732;7.346;2023-05-25T12:52:30;98458.84;;;25.04;38.39
71996;BME280;59862;47.732;7.346;2023-05-25T12:54:42;98457.69;;;27.52;34.56
71996;BME280;59862;47.732;7.346;2023-05-25T12:57:14;98466.88;;;28.43;32.28
71996;BME280;59862;47.732;7.346;2023-05-25T12:59:44;98466.05;;;28.42;31.91
71996;BME280;59862;47.732;7.346;2023-05-25T13:02:13;98461.58;;;27.44;33.51
71996;BME280;59862;47.732;7.346;2023-05-25T13:04:41;98463.42;;;28.97;31.45
71996;BME280;59862;47.732;7.346;2023-05-25T13:07:10;98470.77;;;29.07;31.35
71996;BME280;59862;47.732;7.346;2023-05-25T13:09:38;98465.30;;;27.78;33.08
71996;BME280;59862;47.732;7.346;2023-05-25T13:12:06;98462.90;;;26.00;35.36
71996;BME280;59862;47.732;7.346;2023-05-25T13:14:34;98462.17;;;25.55;36.63
71996;BME280;59862;47.732;7.346;2023-05-25T13:17:01;98456.97;;;25.56;37.00
71996;BME280;59862;47.732;7.346;2023-05-25T13:19:28;98455.84;;;26.24;35.74
71996;BME280;59862;47.732;7.346;2023-05-25T13:21:56;98464.07;;;26.19;36.29
71996;BME280;59862;47.732;7.346;2023-05-25T13:24:24;98457.94;;;26.00;36.06
71996;BME280;59862;47.732;7.346;2023-05-25T13:26:52;98447.52;;;25.37;36.13
71996;BME280;59862;47.732;7.346;2023-05-25T13:29:20;98452.23;;;25.00;37.30
71996;BME280;59862;47.732;7.346;2023-05-25T13:31:49;98445.90;;;27.14;33.91
71996;BME280;59862;47.732;7.346;2023-05-25T13:34:16;98448.66;;;27.98;33.47